Time;durP1;ratioP1;P1;durP2;ratioP2;P2;SDS_P1;SDS_P2;PMS_P1;PMS_P2;Temp;Humidity;BMP_temperature;BMP_pressure;BME280_temperature;BME280_humidity;BME280_pressure;Samples;Min_cycle;Max_cycle;Signal;HPM_P1;HPM_P2
2024/01/22 00:01:43;;;;;;;12.77;6.93;;;0.80;99.00;0.10;100960.00;;;;4896842;28;87808;-70
2024/01/22 00:04:10;;;;;;;7.07;5.60;;;0.50;99.20;0.10;100971.00;;;;4893541;28;91239;-70
2024/01/22 00:06:39;;;;;;;9.87;6.57;;;0.50;99.70;0.20;100967.00;;;;4896260;28;88986;-72
2024/01/22 00:09:05;;;;;;;8.93;6.93;;;0.50;99.80;0.20;100959.00;;;;4910582;28;87953;-69
2024/01/22 00:11:32;;;;;;;8.40;5.67;;;0.40;99.70;0.20;100957.00;;;;4903422;28;88146;-70
2024/01/22 00:13:58;;;;;;;10.53;5.47;;;0.50;99.90;0.30;100943.00;;;;4897001;28;88803;-70
2024/01/22 00:16:24;;;;;;;12.27;6.57;;;0.60;99.90;0.30;100948.00;;;;4907506;28;96340;-69
2024/01/22 00:18:50;;;;;;;6.60;4.97;;;1.40;99.90;0.40;100939.00;;;;4899605;28;105028;-72
2024/01/22 00:21:16;;;;;;;10.50;6.67;;;0.60;99.90;0.40;100937.00;;;;4898964;28;88053;-70
2024/01/22 00:23:42;;;;;;;7.63;4.90;;;0.70;99.90;0.40;100933.00;;;;4902169;28;88065;-69
2024/01/22 00:26:12;;;;;;;8.07;5.50;;;0.70;99.90;0.40;100919.00;;;;4897083;28;105085;-71
2024/01/22 00:28:38;;;;;;;6.67;5.20;;;0.10;99.90;0.30;100908.00;;;;4905539;28;88692;-69
2024/01/22 00:31:04;;;;;;;8.57;5.77;;;0.70;99.90;0.30;100911.00;;;;4895897;28;103252;-69
2024/01/22 00:33:29;;;;;;;12.27;6.33;;;0.70;99.90;0.40;100904.00;;;;4900284;28;105608;-71
2024/01/22 00:35:56;;;;;;;8.80;5.23;;;0.50;99.90;0.40;100899.00;;;;4900545;28;116445;-70
2024/01/22 00:38:21;;;;;;;10.60;6.33;;;0.90;99.90;0.40;100898.00;;;;4896877;28;88827;-72
2024/01/22 00:40:47;;;;;;;14.03;5.70;;;0.80;99.90;0.40;100883.00;;;;4899797;28;109659;-70
2024/01/22 00:43:12;;;;;;;6.00;4.37;;;0.70;99.90;0.40;100872.00;;;;4899489;28;104180;-72
2024/01/22 00:45:38;;;;;;;6.63;5.13;;;0.80;99.90;0.50;100872.00;;;;4898822;28;117632;-69
2024/01/22 00:48:05;;;;;;;9.87;6.00;;;0.80;99.90;0.50;100877.00;;;;4900284;28;116307;-69
2024/01/22 00:50:31;;;;;;;6.27;4.13;;;0.90;99.90;0.50;100875.00;;;;4900902;28;87854;-71
2024/01/22 00:52:57;;;;;;;7.87;5.47;;;0.80;99.90;0.50;100873.00;;;;4899127;28;95206;-71
2024/01/22 00:55:22;;;;;;;9.17;5.17;;;0.80;99.90;0.50;100869.00;;;;4896556;28;116392;-69
2024/01/22 00:57:48;;;;;;;12.13;5.50;;;0.80;99.90;0.50;100851.00;;;;4900546;28;116509;-69
2024/01/22 01:00:15;;;;;;;9.17;5.50;;;0.90;99.90;0.50;100854.00;;;;4896849;28;88286;-70
2024/01/22 01:02:43;;;;;;;6.33;5.17;;;0.90;99.90;0.60;100860.00;;;;4900004;28;88560;-69
2024/01/22 01:05:09;;;;;;;8.03;4.60;;;0.90;99.90;0.60;100852.00;;;;4897603;28;117827;-71
2024/01/22 01:07:35;;;;;;;5.87;3.60;;;1.00;99.90;0.60;100853.00;;;;4901437;28;100651;-71
2024/01/22 01:10:01;;;;;;;8.63;4.97;;;1.00;99.90;0.60;100855.00;;;;4901897;28;88305;-71
2024/01/22 01:12:27;;;;;;;7.67;4.67;;;0.90;99.90;0.60;100844.00;;;;4901403;28;97427;-71
2024/01/22 01:14:53;;;;;;;6.10;4.60;;;0.90;99.90;0.60;100837.00;;;;4902995;28;116852;-69
2024/01/22 01:17:18;;;;;;;6.97;4.80;;;1.00;99.90;0.60;100835.00;;;;4895675;28;117689;-71
2024/01/22 01:19:44;;;;;;;7.40;5.23;;;0.90;99.90;0.60;100837.00;;;;4900060;28;110448;-69
2024/01/22 01:22:09;;;;;;;7.57;4.80;;;1.00;99.90;0.60;100834.00;;;;4897040;28;106757;-70
2024/01/22 01:24:35;;;;;;;10.77;5.77;;;0.90;99.90;0.70;100829.00;;;;4898268;28;116500;-69
2024/01/22 01:27:01;;;;;;;11.70;4.67;;;0.90;99.90;0.60;100826.00;;;;4901597;28;88875;-68
2024/01/22 01:29:26;;;;;;;8.00;3.90;;;1.10;99.90;0.60;100843.00;;;;4897110;28;87890;-68
2024/01/22 01:31:52;;;;;;;6.77;4.40;;;0.90;99.90;0.60;100818.00;;;;4898138;28;109689;-70
2024/01/22 01:34:18;;;;;;;6.43;4.30;;;1.00;99.90;0.60;100825.00;;;;4911521;28;118297;-71
2024/01/22 01:36:43;;;;;;;8.63;5.23;;;1.00;99.90;0.60;100825.00;;;;4901388;28;87957;-69
2024/01/22 01:39:11;;;;;;;8.97;4.13;;;1.10;99.90;0.60;100814.00;;;;4900672;28;110608;-71
2024/01/22 01:41:37;;;;;;;6.57;4.07;;;1.00;99.90;0.70;100807.00;;;;4901111;28;98893;-69
2024/01/22 01:44:03;;;;;;;7.80;5.53;;;1.00;99.90;0.70;100790.00;;;;4898584;28;118036;-70
2024/01/22 01:46:28;;;;;;;5.73;4.00;;;1.10;99.90;0.80;100784.00;;;;4903137;28;98906;-69
2024/01/22 01:48:56;;;;;;;7.77;5.03;;;1.00;99.90;0.80;100779.00;;;;4899957;28;111130;-69
2024/01/22 01:51:22;;;;;;;5.90;4.27;;;1.10;99.90;0.80;100767.00;;;;4909094;28;88803;-67
2024/01/22 01:53:49;;;;;;;6.93;4.97;;;1.20;99.90;0.80;100776.00;;;;4913728;28;88141;-67
2024/01/22 01:56:15;;;;;;;5.47;3.97;;;1.20;99.90;0.80;100767.00;;;;4907926;28;118253;-67
2024/01/22 01:58:41;;;;;;;5.30;3.77;;;1.10;99.90;0.80;100775.00;;;;4898262;28;87684;-68
2024/01/22 02:01:07;;;;;;;6.37;4.40;;;1.00;99.90;0.80;100784.00;;;;4912785;28;108598;-68
2024/01/22 02:03:32;;;;;;;11.80;5.10;;;1.20;99.90;0.80;100781.00;;;;4894781;28;88630;-68
2024/01/22 02:05:59;;;;;;;4.63;4.17;;;1.20;99.90;0.90;100779.00;;;;4897402;28;117923;-70
2024/01/22 02:08:24;;;;;;;5.20;4.10;;;1.20;99.90;0.90;100753.00;;;;4888859;28;108946;-67
2024/01/22 02:10:50;;;;;;;7.67;4.07;;;1.30;99.90;1.00;100742.00;;;;4897072;28;101806;-69
2024/01/22 02:13:16;;;;;;;7.07;4.00;;;1.20;99.90;1.10;100728.00;;;;4899186;28;119457;-69
2024/01/22 02:15:42;;;;;;;5.27;4.37;;;1.30;99.90;1.10;100713.00;;;;4901466;28;88911;-68
2024/01/22 02:18:08;;;;;;;7.03;4.43;;;1.40;99.90;1.20;100723.00;;;;4898259;28;105989;-69
2024/01/22 02:20:34;;;;;;;6.23;4.03;;;2.40;99.90;1.20;100725.00;;;;4899745;28;108774;-68
2024/01/22 02:23:04;;;;;;;6.50;4.20;;;1.50;99.90;1.30;100719.00;;;;4893612;28;118555;-70
2024/01/22 02:25:29;;;;;;;6.50;4.30;;;1.50;99.90;1.40;100704.00;;;;4895561;28;87901;-70
2024/01/22 02:27:55;;;;;;;7.20;4.77;;;1.60;99.90;1.50;100708.00;;;;4898422;28;88114;-67
2024/01/22 02:30:21;;;;;;;3.93;3.00;;;1.70;99.90;1.50;100705.00;;;;4897638;28;107448;-68
2024/01/22 02:32:46;;;;;;;4.57;3.93;;;1.70;99.90;1.60;100707.00;;;;4897080;28;116071;-71
2024/01/22 02:35:15;;;;;;;7.83;4.47;;;1.80;99.90;1.70;100715.00;;;;4897059;28;115960;-70
2024/01/22 02:37:41;;;;;;;8.10;4.73;;;1.90;99.90;1.70;100705.00;;;;4893107;28;94632;-68
2024/01/22 02:40:07;;;;;;;6.53;4.17;;;1.90;99.90;1.80;100710.00;;;;4898309;28;92431;-69
2024/01/22 02:42:33;;;;;;;5.17;3.63;;;1.90;99.90;1.80;100710.00;;;;4898659;28;87962;-69
2024/01/22 02:45:00;;;;;;;9.40;4.70;;;2.20;99.90;1.80;100691.00;;;;4900940;28;107366;-68
2024/01/22 02:47:26;;;;;;;5.37;4.10;;;2.10;99.90;1.80;100691.00;;;;4902135;28;87848;-69
2024/01/22 02:49:52;;;;;;;6.17;3.87;;;2.10;99.90;1.70;100682.00;;;;4895631;28;107485;-69
2024/01/22 02:52:18;;;;;;;5.83;3.63;;;2.10;99.90;1.80;100679.00;;;;4897587;28;88273;-69
2024/01/22 02:54:43;;;;;;;5.20;3.70;;;2.30;99.90;1.70;100668.00;;;;4899316;28;88424;-69
2024/01/22 02:57:12;;;;;;;6.70;4.03;;;2.00;99.90;1.80;100679.00;;;;4895884;28;109764;-69
2024/01/22 02:59:40;;;;;;;7.43;4.67;;;2.10;99.90;1.80;100669.00;;;;4897944;28;87899;-70
2024/01/22 03:02:06;;;;;;;6.23;4.13;;;2.10;99.90;1.80;100672.00;;;;4893210;28;90408;-69
2024/01/22 03:04:32;;;;;;;4.97;3.93;;;2.00;99.90;1.80;100663.00;;;;4895391;28;109188;-72
2024/01/22 03:06:58;;;;;;;6.53;4.30;;;2.70;99.90;1.80;100663.00;;;;4899100;28;111265;-72
2024/01/22 03:09:24;;;;;;;5.50;3.37;;;2.10;99.90;1.80;100663.00;;;;4895468;28;109794;-69
2024/01/22 03:11:50;;;;;;;6.17;4.03;;;2.10;99.90;1.80;100671.00;;;;4898066;28;88839;-72
2024/01/22 03:14:16;;;;;;;6.03;4.60;;;2.20;99.90;1.80;100655.00;;;;4899817;28;92370;-69
2024/01/22 03:16:41;;;;;;;7.17;4.80;;;2.10;99.90;1.80;100655.00;;;;4897418;28;109314;-70
2024/01/22 03:19:07;;;;;;;6.43;4.07;;;2.80;99.90;1.80;100649.00;;;;4894899;28;110568;-69
2024/01/22 03:21:33;;;;;;;7.73;3.80;;;2.00;99.90;1.80;100639.00;;;;4896565;28;116424;-72
2024/01/22 03:23:59;;;;;;;13.83;5.00;;;2.20;99.90;1.80;100638.00;;;;4891590;28;99305;-70
2024/01/22 03:26:25;;;;;;;6.77;4.50;;;2.10;99.90;1.80;100638.00;;;;4901495;28;93854;-69
2024/01/22 03:28:51;;;;;;;6.13;4.43;;;2.10;99.90;1.80;100637.00;;;;4897217;28;88792;-72
2024/01/22 03:31:28;;;;;;;6.20;4.50;;;2.10;99.90;1.90;100625.00;;;;4895100;28;103899;-69
2024/01/22 03:33:55;;;;;;;6.07;4.57;;;2.10;99.90;1.90;100625.00;;;;4906779;28;90221;-69
2024/01/22 03:36:22;;;;;;;5.77;3.27;;;3.10;99.90;2.00;100613.00;;;;4897750;28;87699;-69
2024/01/22 03:38:49;;;;;;;6.37;3.97;;;2.20;99.90;2.00;100608.00;;;;4901277;28;87633;-71
2024/01/22 03:41:14;;;;;;;7.50;4.20;;;2.30;99.90;2.10;100612.00;;;;4899080;28;91915;-69
2024/01/22 03:43:44;;;;;;;5.30;3.57;;;2.40;99.90;2.10;100599.00;;;;4896384;28;89224;-69
2024/01/22 03:46:14;;;;;;;4.03;3.17;;;2.40;99.90;2.20;100594.00;;;;4899532;28;89062;-70
2024/01/22 03:48:40;;;;;;;3.53;3.23;;;2.40;99.90;2.20;100596.00;;;;4900488;28;88075;-70
2024/01/22 03:51:06;;;;;;;5.43;4.10;;;2.50;99.90;2.30;100593.00;;;;4898965;28;116808;-69
2024/01/22 03:53:32;;;;;;;6.07;3.73;;;2.40;99.90;2.30;100592.00;;;;4901222;28;90425;-70
2024/01/22 03:55:58;;;;;;;5.33;3.50;;;2.40;99.90;2.40;100587.00;;;;4901748;28;110530;-73
2024/01/22 03:58:24;;;;;;;8.83;4.47;;;2.50;99.90;2.40;100576.00;;;;4902924;28;108885;-70
2024/01/22 04:00:49;;;;;;;5.30;3.93;;;2.70;99.90;2.40;100588.00;;;;4918356;28;101392;-72
2024/01/22 04:03:15;;;;;;;4.60;4.13;;;2.70;99.90;2.40;100594.00;;;;4902702;28;118960;-70
2024/01/22 04:05:42;;;;;;;7.70;4.17;;;2.70;99.90;2.50;100593.00;;;;4895863;28;108250;-71
2024/01/22 04:08:08;;;;;;;4.83;3.97;;;2.70;99.90;2.50;100603.00;;;;4901138;28;88024;-70
2024/01/22 04:10:34;;;;;;;5.40;4.03;;;3.40;99.90;2.50;100598.00;;;;4897901;28;89807;-72
2024/01/22 04:12:59;;;;;;;8.77;4.03;;;2.70;99.90;2.50;100601.00;;;;4898311;28;87683;-71
2024/01/22 04:15:25;;;;;;;5.53;3.53;;;2.80;99.90;2.50;100582.00;;;;4896643;28;109441;-72
2024/01/22 04:17:51;;;;;;;8.43;3.60;;;2.70;99.90;2.60;100578.00;;;;4899962;28;109260;-71
2024/01/22 04:20:16;;;;;;;5.60;3.90;;;2.80;99.90;2.60;100569.00;;;;4912690;28;116893;-72
2024/01/22 04:22:42;;;;;;;4.67;3.93;;;2.80;99.90;2.60;100567.00;;;;4900808;28;107723;-70
2024/01/22 04:25:08;;;;;;;10.83;5.83;;;2.90;99.90;2.60;100572.00;;;;4904043;28;108941;-72
2024/01/22 04:27:34;;;;;;;4.23;3.13;;;2.80;99.90;2.60;100558.00;;;;4898774;28;98247;-70
2024/01/22 04:30:00;;;;;;;5.10;3.67;;;2.90;99.90;2.70;100551.00;;;;4902240;28;87828;-71
2024/01/22 04:32:26;;;;;;;7.93;4.80;;;2.80;99.90;2.70;100564.00;;;;4900636;28;112502;-71
2024/01/22 04:34:52;;;;;;;8.90;6.17;;;2.80;99.90;2.70;100560.00;;;;4904076;28;111090;-70
2024/01/22 04:37:18;;;;;;;13.27;7.33;;;3.00;99.90;2.70;100557.00;;;;4903307;28;87688;-71
2024/01/22 04:39:43;;;;;;;9.80;5.53;;;3.50;99.90;2.70;100573.00;;;;4903936;28;117197;-71
2024/01/22 04:42:10;;;;;;;10.73;6.40;;;2.90;99.90;2.70;100571.00;;;;4899477;28;96101;-69
2024/01/22 04:44:36;;;;;;;12.97;7.83;;;2.90;99.90;2.70;100569.00;;;;4901038;28;109912;-70
2024/01/22 04:47:01;;;;;;;6.70;4.33;;;4.00;99.90;2.70;100563.00;;;;4913105;28;88201;-73
2024/01/22 04:49:27;;;;;;;7.33;4.40;;;2.90;99.90;2.70;100557.00;;;;4903302;28;108644;-70
2024/01/22 04:51:54;;;;;;;5.57;3.30;;;3.00;99.90;2.80;100547.00;;;;4893280;28;118422;-71
2024/01/22 04:54:20;;;;;;;5.80;3.53;;;2.90;99.90;2.80;100555.00;;;;4899329;28;99196;-72
2024/01/22 04:56:47;;;;;;;6.27;3.57;;;3.50;99.90;2.80;100551.00;;;;4911549;28;88210;-70
2024/01/22 04:59:13;;;;;;;10.30;4.73;;;2.90;99.90;2.80;100540.00;;;;4897191;28;87173;-72
2024/01/22 05:01:40;;;;;;;5.80;4.23;;;3.00;99.90;2.80;100531.00;;;;4912083;28;106873;-71
2024/01/22 05:04:06;;;;;;;4.90;3.67;;;3.00;99.90;2.80;100529.00;;;;4901614;28;87969;-72
2024/01/22 05:06:32;;;;;;;4.97;3.60;;;3.00;99.90;2.80;100542.00;;;;4898988;28;89017;-70
2024/01/22 05:08:58;;;;;;;5.37;3.87;;;3.10;99.90;2.80;100552.00;;;;4895823;28;87904;-72
2024/01/22 05:11:24;;;;;;;7.17;3.83;;;3.00;99.90;2.90;100535.00;;;;4896357;28;117587;-70
2024/01/22 05:13:54;;;;;;;2.80;2.60;;;3.70;99.90;2.90;100542.00;;;;4899042;28;88038;-69
2024/01/22 05:16:22;;;;;;;6.57;3.87;;;3.10;99.90;2.90;100540.00;;;;4901017;28;88006;-70
2024/01/22 05:18:50;;;;;;;5.50;3.33;;;3.10;99.90;3.00;100532.00;;;;4915028;28;87913;-72
2024/01/22 05:21:16;;;;;;;6.40;3.77;;;3.20;99.90;3.00;100535.00;;;;4896555;28;103164;-69
2024/01/22 05:23:42;;;;;;;4.80;3.80;;;3.90;99.90;3.00;100532.00;;;;4897575;28;87031;-70
2024/01/22 05:26:08;;;;;;;3.50;3.20;;;4.20;99.90;3.00;100536.00;;;;4902276;28;107359;-69
2024/01/22 05:28:35;;;;;;;5.70;3.47;;;3.20;99.90;3.10;100531.00;;;;4898621;28;97879;-70
2024/01/22 05:31:01;;;;;;;12.07;6.30;;;3.30;99.90;3.10;100527.00;;;;4902201;28;88725;-70
2024/01/22 05:33:28;;;;;;;7.47;3.77;;;3.30;99.90;3.10;100516.00;;;;4895778;28;88015;-69
2024/01/22 05:35:55;;;;;;;6.10;3.73;;;3.20;99.90;3.10;100534.00;;;;4899739;28;100444;-72
2024/01/22 05:38:21;;;;;;;4.13;3.67;;;3.20;99.90;3.10;100521.00;;;;4898417;28;88062;-69
2024/01/22 05:40:47;;;;;;;3.10;2.70;;;3.30;99.90;3.10;100513.00;;;;4899868;28;88973;-71
2024/01/22 05:43:13;;;;;;;6.93;3.53;;;3.40;99.90;3.10;100500.00;;;;4897099;28;101312;-69
2024/01/22 05:45:39;;;;;;;6.93;3.87;;;3.40;99.90;3.10;100500.00;;;;4900123;28;87586;-70
2024/01/22 05:48:06;;;;;;;6.40;3.50;;;4.40;99.90;3.20;100482.00;;;;4900079;28;87901;-71
2024/01/22 05:50:32;;;;;;;4.70;3.53;;;3.50;99.90;3.20;100464.00;;;;4899278;28;87934;-70
2024/01/22 05:52:58;;;;;;;5.10;3.57;;;3.30;99.90;3.20;100468.00;;;;4900421;28;87642;-69
2024/01/22 05:55:24;;;;;;;3.63;3.23;;;3.30;99.90;3.20;100465.00;;;;4897720;28;88953;-72
2024/01/22 05:57:49;;;;;;;9.87;3.90;;;3.40;99.90;3.20;100434.00;;;;4896403;28;92822;-70
2024/01/22 06:00:18;;;;;;;4.00;2.10;;;3.40;99.90;3.30;100422.00;;;;4894331;28;118482;-70
2024/01/22 06:02:44;;;;;;;5.17;3.33;;;3.60;99.90;3.30;100422.00;;;;4900155;28;87972;-69
2024/01/22 06:05:10;;;;;;;8.73;3.37;;;3.50;99.90;3.30;100410.00;;;;4894511;28;109469;-68
2024/01/22 06:07:36;;;;;;;4.47;3.60;;;3.50;99.90;3.40;100413.00;;;;4895473;28;89585;-73
2024/01/22 06:10:03;;;;;;;9.20;3.40;;;3.50;99.90;3.40;100396.00;;;;4903214;28;116965;-70
2024/01/22 06:12:28;;;;;;;2.77;2.27;;;3.60;99.90;3.40;100396.00;;;;4894900;28;87551;-72
2024/01/22 06:14:54;;;;;;;3.37;2.47;;;3.50;99.90;3.40;100389.00;;;;4892810;28;108328;-73
2024/01/22 06:17:20;;;;;;;4.03;3.00;;;3.80;99.90;3.50;100379.00;;;;4891589;28;117650;-71
2024/01/22 06:19:46;;;;;;;5.70;3.30;;;3.50;99.90;3.50;100369.00;;;;4894000;28;117618;-71
2024/01/22 06:22:12;;;;;;;3.97;3.30;;;3.60;99.90;3.50;100391.00;;;;4894779;28;110388;-70
2024/01/22 06:24:39;;;;;;;4.90;3.10;;;3.70;99.90;3.50;100377.00;;;;4893006;28;88125;-69
2024/01/22 06:27:05;;;;;;;2.87;2.30;;;3.90;99.90;3.60;100378.00;;;;4888715;28;89529;-70
2024/01/22 06:29:31;;;;;;;4.17;2.93;;;3.80;99.90;3.60;100363.00;;;;4895454;28;87763;-71
2024/01/22 06:31:56;;;;;;;6.93;3.43;;;3.80;99.90;3.70;100357.00;;;;4892309;28;110948;-71
2024/01/22 06:34:22;;;;;;;3.90;2.37;;;4.20;99.90;3.70;100354.00;;;;4893093;28;109053;-73
2024/01/22 06:36:48;;;;;;;4.70;2.57;;;4.80;99.90;3.70;100337.00;;;;4892568;28;116458;-71
2024/01/22 06:39:13;;;;;;;4.13;2.93;;;3.90;99.90;3.80;100336.00;;;;4890922;28;88130;-72
2024/01/22 06:41:41;;;;;;;5.17;2.93;;;4.00;99.90;3.80;100330.00;;;;4894177;28;94342;-71
2024/01/22 06:44:07;;;;;;;9.03;3.90;;;4.00;99.90;3.80;100333.00;;;;4907105;28;98710;-70
2024/01/22 06:46:32;;;;;;;4.07;2.80;;;4.00;99.90;3.80;100319.00;;;;4895134;28;88659;-69
2024/01/22 06:48:58;;;;;;;7.63;4.00;;;4.00;99.90;3.70;100323.00;;;;4896589;28;99964;-72
2024/01/22 06:51:24;;;;;;;4.17;2.83;;;3.90;99.90;3.70;100288.00;;;;4893496;28;108886;-71
2024/01/22 06:53:50;;;;;;;3.80;2.73;;;4.00;99.90;3.70;100301.00;;;;4893267;28;107568;-70
2024/01/22 06:56:15;;;;;;;5.67;3.07;;;3.90;99.90;3.80;100315.00;;;;4896089;28;90817;-72
2024/01/22 06:58:41;;;;;;;6.97;3.63;;;4.00;99.90;3.80;100325.00;;;;4913915;28;116679;-70
2024/01/22 07:01:07;;;;;;;5.40;4.13;;;4.00;99.90;3.90;100288.00;;;;4898528;28;110996;-70
2024/01/22 07:03:33;;;;;;;2.33;2.13;;;4.00;99.90;3.90;100288.00;;;;4900423;28;87826;-72
2024/01/22 07:05:58;;;;;;;4.00;2.80;;;4.10;99.90;4.00;100282.00;;;;4896143;28;118159;-70
2024/01/22 07:08:24;;;;;;;3.13;2.83;;;4.10;99.90;4.00;100285.00;;;;4897109;28;117514;-70
2024/01/22 07:10:50;;;;;;;2.77;2.57;;;4.90;99.90;4.10;100276.00;;;;4899236;28;88064;-70
2024/01/22 07:13:16;;;;;;;2.90;2.07;;;3.40;99.90;4.10;100249.00;;;;4900553;28;88037;-72
2024/01/22 07:15:41;;;;;;;8.47;3.43;;;4.20;99.90;4.20;100262.00;;;;4901501;28;88505;-71
2024/01/22 07:18:08;;;;;;;5.13;3.13;;;4.40;99.90;4.30;100256.00;;;;4896560;28;117188;-71
2024/01/22 07:20:33;;;;;;;4.67;2.33;;;4.60;99.90;4.30;100255.00;;;;4897183;28;87824;-73
2024/01/22 07:22:59;;;;;;;3.60;2.17;;;4.50;99.90;4.40;100249.00;;;;4904220;28;107909;-71
2024/01/22 07:25:25;;;;;;;3.57;2.50;;;4.90;99.90;4.40;100273.00;;;;4916013;28;116297;-72
2024/01/22 07:27:51;;;;;;;5.00;2.73;;;4.60;99.90;4.50;100267.00;;;;4899991;28;108208;-71
2024/01/22 07:30:17;;;;;;;5.60;2.83;;;4.60;99.90;4.50;100253.00;;;;4902233;28;97678;-74
2024/01/22 07:32:44;;;;;;;2.73;2.53;;;4.70;99.90;4.60;100249.00;;;;4899884;28;99657;-71
2024/01/22 07:35:13;;;;;;;3.57;2.23;;;4.70;99.90;4.60;100252.00;;;;4900399;28;88759;-72
2024/01/22 07:37:44;;;;;;;2.60;2.20;;;4.80;99.90;4.70;100254.00;;;;4900419;28;87819;-72
2024/01/22 07:40:11;;;;;;;7.53;2.63;;;4.80;99.90;4.70;100268.00;;;;4900215;28;88884;-72
2024/01/22 07:42:39;;;;;;;4.13;2.63;;;4.90;99.90;4.70;100264.00;;;;4898508;28;93805;-74
2024/01/22 07:45:06;;;;;;;5.57;3.17;;;4.80;99.90;4.80;100252.00;;;;4899395;28;88798;-71
2024/01/22 07:47:35;;;;;;;3.67;2.97;;;5.00;99.90;4.80;100253.00;;;;4893547;28;88214;-71
2024/01/22 07:50:05;;;;;;;4.27;3.20;;;5.30;99.90;4.80;100260.00;;;;4901817;28;110550;-71
2024/01/22 07:52:35;;;;;;;4.43;2.63;;;5.30;99.90;4.80;100231.00;;;;4898505;28;88131;-70
2024/01/22 07:55:02;;;;;;;4.37;2.20;;;5.10;99.90;4.80;100243.00;;;;4904449;28;88340;-71
2024/01/22 07:57:28;;;;;;;5.73;2.60;;;5.00;99.90;4.80;100251.00;;;;4899417;28;88788;-74
2024/01/22 07:59:54;;;;;;;3.43;2.27;;;4.90;99.90;4.80;100246.00;;;;4904067;28;88799;-73
2024/01/22 08:02:19;;;;;;;4.20;2.00;;;5.00;99.90;4.80;100262.00;;;;4905751;28;98839;-72
2024/01/22 08:04:45;;;;;;;4.10;2.40;;;5.00;99.90;4.90;100284.00;;;;4899808;28;117884;-73
2024/01/22 08:07:11;;;;;;;2.73;2.17;;;5.40;99.90;4.90;100285.00;;;;4899035;28;95991;-70
2024/01/22 08:09:38;;;;;;;4.50;2.27;;;5.10;99.90;4.90;100288.00;;;;4896472;28;111625;-70
2024/01/22 08:12:04;;;;;;;1.87;1.70;;;5.10;99.90;4.90;100286.00;;;;4896967;28;87577;-73
2024/01/22 08:14:31;;;;;;;5.47;2.27;;;5.10;99.90;4.90;100284.00;;;;4905346;28;94124;-73
2024/01/22 08:16:57;;;;;;;4.20;2.70;;;5.10;99.90;4.90;100292.00;;;;4899593;28;88558;-73
2024/01/22 08:19:23;;;;;;;3.30;2.03;;;5.40;99.90;5.00;100289.00;;;;4912775;28;88112;-71
2024/01/22 08:21:49;;;;;;;3.87;2.93;;;5.10;99.90;5.00;100292.00;;;;4898187;28;104527;-71
2024/01/22 08:24:14;;;;;;;4.27;2.33;;;5.10;99.90;5.00;100306.00;;;;4913914;28;102144;-71
2024/01/22 08:26:40;;;;;;;2.73;1.80;;;5.20;99.90;5.00;100292.00;;;;4897181;28;116387;-71
2024/01/22 08:29:07;;;;;;;2.63;1.97;;;5.20;99.90;5.10;100279.00;;;;4900558;28;89230;-70
2024/01/22 08:31:32;;;;;;;3.60;1.87;;;6.10;99.90;5.10;100272.00;;;;4900621;28;87828;-73
2024/01/22 08:33:59;;;;;;;2.53;2.27;;;5.20;99.90;5.10;100269.00;;;;4898803;28;106269;-73
2024/01/22 08:36:25;;;;;;;7.07;2.30;;;5.20;99.90;5.10;100271.00;;;;4900017;28;89639;-73
2024/01/22 08:38:50;;;;;;;2.27;2.00;;;5.30;99.90;5.10;100274.00;;;;4901936;28;111004;-74
2024/01/22 08:41:16;;;;;;;5.77;3.00;;;5.20;99.90;5.10;100279.00;;;;4900515;28;109185;-72
2024/01/22 08:43:45;;;;;;;5.77;2.27;;;5.40;99.90;5.20;100288.00;;;;4898713;28;117241;-73
2024/01/22 08:46:10;;;;;;;4.03;1.97;;;5.40;99.90;5.20;100282.00;;;;4915804;28;117812;-70
2024/01/22 08:48:36;;;;;;;4.03;1.83;;;5.30;99.90;5.20;100268.00;;;;4898276;28;110127;-71
2024/01/22 08:51:01;;;;;;;6.23;2.40;;;6.20;99.90;5.20;100286.00;;;;4897351;28;109120;-71
2024/01/22 08:53:27;;;;;;;2.13;1.77;;;5.30;99.90;5.30;100290.00;;;;4898573;28;117073;-73
2024/01/22 08:55:53;;;;;;;4.13;2.40;;;6.00;99.90;5.30;100291.00;;;;4896666;28;117252;-71
2024/01/22 08:58:18;;;;;;;3.33;2.10;;;5.70;99.90;5.30;100283.00;;;;4899494;28;108232;-74
2024/01/22 09:00:44;;;;;;;3.53;2.30;;;6.40;99.90;5.40;100285.00;;;;4902258;28;94617;-70
2024/01/22 09:03:10;;;;;;;2.97;2.57;;;5.80;99.90;5.40;100290.00;;;;4898476;28;116099;-75
2024/01/22 09:05:35;;;;;;;4.83;3.13;;;5.50;99.90;5.50;100274.00;;;;4895958;28;116708;-71
2024/01/22 09:08:01;;;;;;;2.40;1.93;;;5.70;99.90;5.50;100273.00;;;;4896412;28;110826;-74
2024/01/22 09:10:27;;;;;;;2.37;1.93;;;6.10;99.90;5.60;100281.00;;;;4914242;28;89451;-71
2024/01/22 09:12:54;;;;;;;3.87;2.43;;;5.70;99.90;5.60;100272.00;;;;4897593;28;89050;-71
2024/01/22 09:15:19;;;;;;;5.87;2.40;;;5.70;99.90;5.60;100277.00;;;;4902392;28;87849;-74
2024/01/22 09:17:45;;;;;;;1.63;1.53;;;5.70;99.90;5.60;100274.00;;;;4901538;28;103015;-72
2024/01/22 09:20:12;;;;;;;3.27;1.50;;;5.80;99.90;5.60;100265.00;;;;4900790;28;87660;-70
2024/01/22 09:22:38;;;;;;;2.13;1.33;;;5.70;99.90;5.70;100270.00;;;;4900677;28;96330;-72
2024/01/22 09:25:05;;;;;;;1.57;1.27;;;6.30;99.90;5.80;100261.00;;;;4900002;28;119466;-71
2024/01/22 09:27:33;;;;;;;3.47;1.73;;;6.00;99.90;6.00;100269.00;;;;4897919;28;87310;-71
2024/01/22 09:29:59;;;;;;;2.67;1.67;;;7.00;99.90;6.10;100263.00;;;;4900065;28;96921;-70
2024/01/22 09:32:28;;;;;;;3.17;1.73;;;6.50;99.90;6.20;100248.00;;;;4897315;28;117715;-73
2024/01/22 09:34:53;;;;;;;2.07;1.33;;;6.30;99.90;6.30;100254.00;;;;4899662;28;88776;-71
2024/01/22 09:37:19;;;;;;;2.37;1.27;;;6.40;99.90;6.30;100243.00;;;;4902240;28;111127;-73
2024/01/22 09:39:45;;;;;;;1.33;1.23;;;7.20;99.90;6.30;100246.00;;;;4899779;28;108862;-77
2024/01/22 09:42:14;;;;;;;2.60;1.77;;;6.40;99.90;6.20;100247.00;;;;4913097;28;110285;-73
2024/01/22 09:44:41;;;;;;;2.23;1.07;;;6.40;99.90;6.00;100233.00;;;;4901275;28;88950;-73
2024/01/22 09:47:09;;;;;;;2.40;1.53;;;6.20;99.90;5.90;100256.00;;;;4899413;28;87739;-75
2024/01/22 09:49:36;;;;;;;3.60;1.23;;;6.10;99.90;5.80;100255.00;;;;4912321;28;108955;-76
2024/01/22 09:52:03;;;;;;;1.43;1.10;;;6.40;99.90;5.70;100238.00;;;;4896816;28;87896;-76
2024/01/22 09:54:30;;;;;;;3.00;1.47;;;5.80;99.90;5.60;100240.00;;;;4880679;28;103016;-76
2024/01/22 09:56:59;;;;;;;2.30;1.50;;;6.30;99.90;5.60;100239.00;;;;4898579;28;87842;-76
2024/01/22 09:59:28;;;;;;;2.73;1.10;;;5.80;99.90;5.60;100224.00;;;;4899016;28;88854;-77
2024/01/22 10:01:55;;;;;;;2.73;1.30;;;5.70;99.90;5.60;100230.00;;;;4893204;28;88012;-77
2024/01/22 10:04:23;;;;;;;2.50;1.97;;;6.20;99.90;5.60;100225.00;;;;4892413;28;90763;-77
2024/01/22 10:06:50;;;;;;;3.03;2.23;;;5.70;99.90;5.50;100222.00;;;;4894783;28;88790;-77
2024/01/22 10:09:17;;;;;;;4.13;2.90;;;5.70;99.90;5.50;100226.00;;;;4898547;28;107581;-78
2024/01/22 10:11:44;;;;;;;3.07;2.70;;;6.20;99.90;5.50;100222.00;;;;4897802;28;90541;-74
2024/01/22 10:14:11;;;;;;;4.30;1.90;;;5.60;99.90;5.40;100211.00;;;;4881586;28;89699;-76
2024/01/22 10:16:37;;;;;;;3.63;1.67;;;5.60;99.90;5.40;100217.00;;;;4897087;28;110714;-74
2024/01/22 10:19:06;;;;;;;2.63;1.77;;;5.60;99.90;5.40;100208.00;;;;4898523;28;108701;-77
2024/01/22 10:21:33;;;;;;;2.70;1.67;;;5.60;99.90;5.40;100199.00;;;;4895870;28;88836;-77
2024/01/22 10:24:01;;;;;;;2.80;1.57;;;5.60;99.90;5.30;100197.00;;;;4896926;28;88730;-76
2024/01/22 10:26:28;;;;;;;1.77;1.63;;;5.50;99.90;5.30;100206.00;;;;4892544;28;88322;-75
2024/01/22 10:29:14;;;;;;;1.67;1.57;;;6.40;99.90;5.30;100207.00;;;;4918136;28;88133;-72
2024/01/22 10:31:58;;;;;;;1.70;1.43;;;5.50;99.90;5.30;100194.00;;;;4894290;28;88975;-76
2024/01/22 10:34:29;;;;;;;1.87;1.50;;;5.40;99.90;5.30;100185.00;;;;4910574;28;87915;-72
2024/01/22 10:37:09;;;;;;;2.37;1.93;;;5.60;99.90;5.30;100175.00;;;;4894601;28;87849;-74
2024/01/22 10:39:37;;;;;;;2.20;1.80;;;5.50;99.90;5.30;100179.00;;;;4897681;28;91286;-71
2024/01/22 10:42:15;;;;;;;1.47;1.30;;;6.40;99.90;5.30;100180.00;;;;4900105;28;88309;-73
2024/01/22 10:44:46;;;;;;;2.83;2.40;;;5.50;99.90;5.30;100160.00;;;;4896819;28;87949;-73
2024/01/22 10:47:13;;;;;;;2.87;1.83;;;6.30;99.90;5.30;100167.00;;;;4895491;28;98262;-73
2024/01/22 10:49:45;;;;;;;2.67;1.43;;;5.80;99.90;5.30;100169.00;;;;4900683;28;88907;-74
2024/01/22 10:52:11;;;;;;;2.83;1.80;;;5.40;99.90;5.30;100160.00;;;;4911232;28;88554;-73
2024/01/22 10:54:38;;;;;;;3.00;2.03;;;5.50;99.90;5.30;100155.00;;;;4894917;28;89910;-72